CheckWX is a tool to help pilots better visualize weather data.  It is not intended as a substitute for an official pre-flight weather briefing.

12:28:14 UTC

KIXD TAF
New Century Aircenter Airport
Olathe, Kansas, USA
KIXD 221202Z 2212/2312 29005KT P6SM SKC FM230100 09007KT P6SM SCT200

Mar-22@
12:00 UTC

Mar-22 @ 12:00 UTC

Mar-23@
01:00 UTC

Mar-23 @ 01:00 UTC

KIXD 221202Z 2212/2312 29005KT P6SM SKC
Wind
  • 290° at 5 KTS
Cloud Levels
  • Clear skies

Mar-23@
01:00 UTC

Mar-23 @ 01:00 UTC

Mar-23@
12:00 UTC

Mar-23 @ 12:00 UTC

FM230100 09007KT P6SM SCT200

From

From Standard forecast or significant change

Wind
  • 090° at 7 KTS
Cloud Levels
  • Scattered at 20,000' AGL